createdAt,value
2022-09-07T00:05:31.331Z,10.68
2022-09-07T00:13:41.253Z,5.53
2022-09-07T00:21:46.657Z,10.10
2022-09-07T00:29:54.960Z,7.72
2022-09-07T00:38:00.405Z,6.70
2022-09-07T00:46:10.499Z,8.30
2022-09-07T00:54:20.424Z,6.80
2022-09-07T01:02:29.364Z,8.73
2022-09-07T01:10:35.046Z,9.48
2022-09-07T01:18:52.497Z,7.88
2022-09-07T01:27:20.397Z,7.65
2022-09-07T01:35:39.386Z,9.38
2022-09-07T01:43:51.089Z,8.63
2022-09-07T01:52:03.946Z,5.93
2022-09-07T02:00:12.274Z,7.60
2022-09-07T02:08:29.620Z,6.95
2022-09-07T02:16:37.614Z,7.88
2022-09-07T02:24:51.346Z,6.15
2022-09-07T02:32:57.494Z,7.30
2022-09-07T02:41:06.681Z,5.80
2022-09-07T02:49:24.278Z,7.40
2022-09-07T02:57:41.163Z,8.35
2022-09-07T03:05:51.963Z,8.20
2022-09-07T03:14:14.822Z,11.50
2022-09-07T03:22:20.275Z,6.73
2022-09-07T03:30:28.441Z,6.80
2022-09-07T03:38:33.989Z,8.85
2022-09-07T03:46:42.095Z,8.90
2022-09-07T03:54:47.622Z,6.40
2022-09-07T04:02:55.762Z,10.20
2022-09-07T04:11:01.913Z,9.23
2022-09-07T04:19:10.033Z,9.35
2022-09-07T04:27:15.525Z,9.77
2022-09-07T04:35:23.641Z,9.68
2022-09-07T04:43:29.177Z,10.30
2022-09-07T04:51:38.221Z,9.07
2022-09-07T04:59:43.678Z,9.43
2022-09-07T05:07:51.811Z,11.15
2022-09-07T05:15:57.258Z,11.02
2022-09-07T05:24:05.840Z,10.57
2022-09-07T05:32:11.353Z,6.60
2022-09-07T05:40:19.517Z,11.60
2022-09-07T05:48:24.926Z,11.68
2022-09-07T05:56:33.081Z,9.45
2022-09-07T06:04:38.527Z,7.78
2022-09-07T06:12:49.294Z,6.10
2022-09-07T06:20:55.091Z,8.48
2022-09-07T06:29:05.018Z,8.90
2022-09-07T06:37:10.873Z,13.10
2022-09-07T06:45:19.048Z,9.68
2022-09-07T06:53:41.831Z,9.82
2022-09-07T07:01:52.491Z,11.05
2022-09-07T07:09:57.955Z,10.35
2022-09-07T07:18:20.450Z,8.55
2022-09-07T07:26:28.203Z,11.60
2022-09-07T07:34:36.318Z,8.77
2022-09-07T07:42:43.081Z,8.13
2022-09-07T07:51:04.354Z,8.02
2022-09-07T07:59:15.650Z,7.45
2022-09-07T08:07:24.041Z,11.60
2022-09-07T08:15:29.974Z,6.80
2022-09-07T08:23:38.919Z,6.70
2022-09-07T08:31:44.841Z,10.25
2022-09-07T08:39:52.839Z,9.23
2022-09-07T08:47:58.298Z,7.38
2022-09-07T08:56:10.378Z,6.63
2022-09-07T09:04:23.043Z,9.13
2022-09-07T09:12:41.893Z,7.25
2022-09-07T09:20:52.863Z,6.15
2022-09-07T09:29:01.299Z,5.13
2022-09-07T09:37:22.726Z,12.60
2022-09-07T09:46:12.156Z,8.57
2022-09-07T09:54:06.170Z,8.02
2022-09-07T10:11:01.313Z,7.32
2022-09-07T10:19:09.313Z,6.93
2022-09-07T10:27:31.603Z,8.95
2022-09-07T10:35:52.126Z,7.73
2022-09-07T10:43:58.705Z,9.45
2022-09-07T10:52:14.405Z,8.65
2022-09-07T11:00:22.413Z,6.30
2022-09-07T11:17:16.040Z,6.93
2022-09-07T11:25:30.037Z,7.10
2022-09-07T11:33:40.477Z,6.68
2022-09-07T11:41:55.416Z,6.43
2022-09-07T11:50:00.903Z,7.75
2022-09-07T11:58:39.124Z,10.63
2022-09-07T12:07:20.686Z,8.23
2022-09-07T12:15:38.249Z,9.95
2022-09-07T12:23:49.350Z,10.65
2022-09-07T12:32:00.039Z,12.43
2022-09-07T12:40:47.125Z,8.40
2022-09-07T12:49:04.739Z,11.75
2022-09-07T12:57:29.889Z,10.45
2022-09-07T13:05:54.640Z,10.00
2022-09-07T13:14:04.745Z,8.70
2022-09-07T13:23:01.201Z,11.70
2022-09-07T13:31:21.885Z,14.10
2022-09-07T13:39:31.881Z,11.60
2022-09-07T13:47:45.427Z,11.68
2022-09-07T13:56:03.254Z,10.23
2022-09-07T14:04:09.624Z,11.63
2022-09-07T14:12:22.120Z,12.70
2022-09-07T14:20:28.383Z,23.10
2022-09-07T14:28:40.739Z,15.73
2022-09-07T14:36:47.031Z,14.25
2022-09-07T14:45:21.962Z,12.50
2022-09-07T14:53:35.059Z,14.35
2022-09-07T15:01:43.285Z,13.45
2022-09-07T15:09:48.732Z,11.63
2022-09-07T15:18:03.062Z,14.13
2022-09-07T15:27:02.024Z,14.85
2022-09-07T15:34:40.508Z,12.43
2022-09-07T15:43:04.292Z,10.80
2022-09-07T15:59:40.726Z,12.75
2022-09-07T16:16:15.695Z,14.93
2022-09-07T16:24:23.902Z,14.43
2022-09-07T16:32:44.953Z,12.18
2022-09-07T16:40:53.896Z,13.05
2022-09-07T16:48:59.506Z,11.52
2022-09-07T16:57:07.938Z,13.77
2022-09-07T17:05:13.239Z,7.82
2022-09-07T17:13:21.171Z,8.40
2022-09-07T17:21:26.655Z,11.18
2022-09-07T17:29:37.672Z,10.30
2022-09-07T17:37:43.059Z,10.38
2022-09-07T17:45:51.188Z,12.23
2022-09-07T17:54:00.223Z,9.75
2022-09-07T18:02:08.170Z,7.85
2022-09-07T18:10:13.551Z,11.45
2022-09-07T18:18:21.494Z,12.38
2022-09-07T18:26:28.221Z,12.43
2022-09-07T18:34:36.309Z,14.45
2022-09-07T18:42:42.100Z,9.65
2022-09-07T18:50:56.304Z,17.25
2022-09-07T18:59:01.603Z,13.35
2022-09-07T19:07:09.577Z,12.00
2022-09-07T19:15:14.859Z,13.05
2022-09-07T19:23:22.782Z,11.63
2022-09-07T19:31:29.203Z,10.68
2022-09-07T19:39:37.323Z,12.02
2022-09-07T19:47:42.699Z,11.48
2022-09-07T19:55:50.878Z,14.40
2022-09-07T20:04:00.497Z,16.02
2022-09-07T20:12:10.955Z,13.18
2022-09-07T20:20:16.343Z,16.90
2022-09-07T20:28:24.242Z,15.10
2022-09-07T20:36:29.566Z,11.05
2022-09-07T20:44:37.528Z,13.35
2022-09-07T20:52:42.842Z,11.10
2022-09-07T21:00:56.644Z,12.32
2022-09-07T21:09:02.641Z,15.13
2022-09-07T21:17:10.527Z,13.88
2022-09-07T21:25:15.863Z,14.32
2022-09-07T21:33:23.962Z,13.23
2022-09-07T21:41:29.480Z,15.18
2022-09-07T21:49:37.430Z,12.68
2022-09-07T21:57:42.837Z,17.48
2022-09-07T22:05:50.848Z,16.00
2022-09-07T22:13:58.238Z,18.63
2022-09-07T22:22:06.177Z,16.85
2022-09-07T22:30:12.822Z,17.48
2022-09-07T22:38:20.718Z,16.95
2022-09-07T22:46:28.561Z,15.98
2022-09-07T22:54:36.508Z,15.23
2022-09-07T23:02:41.826Z,19.27
2022-09-07T23:10:49.773Z,15.30
2022-09-07T23:18:55.124Z,17.85
2022-09-07T23:27:02.990Z,15.55
2022-09-07T23:35:10.268Z,18.92
2022-09-07T23:43:20.641Z,16.38
2022-09-07T23:51:25.944Z,13.48
2022-09-07T23:59:34.201Z,20.17
